sensor_id;sensor_type;location;lat;lon;timestamp;temperature;humidity
75471;HTU21D;64051;46.320;48.028;2023-07-30T00:01:59;21.51;61.23
75471;HTU21D;64051;46.320;48.028;2023-07-30T00:04:25;21.49;61.20
75471;HTU21D;64051;46.320;48.028;2023-07-30T00:06:51;21.46;61.22
75471;HTU21D;64051;46.320;48.028;2023-07-30T00:09:17;21.42;61.24
75471;HTU21D;64051;46.320;48.028;2023-07-30T00:11:43;21.38;61.27
75471;HTU21D;64051;46.320;48.028;2023-07-30T00:14:09;21.32;61.30
75471;HTU21D;64051;46.320;48.028;2023-07-30T00:16:35;21.28;61.34
75471;HTU21D;64051;46.320;48.028;2023-07-30T00:19:00;21.25;61.40
75471;HTU21D;64051;46.320;48.028;2023-07-30T00:21:26;21.20;61.41
75471;HTU21D;64051;46.320;48.028;2023-07-30T00:23:52;21.18;61.47
75471;HTU21D;64051;46.320;48.028;2023-07-30T00:26:18;21.15;61.45
75471;HTU21D;64051;46.320;48.028;2023-07-30T00:28:44;21.10;61.47
75471;HTU21D;64051;46.320;48.028;2023-07-30T00:31:09;21.07;61.49
75471;HTU21D;64051;46.320;48.028;2023-07-30T00:33:35;21.06;61.50
75471;HTU21D;64051;46.320;48.028;2023-07-30T00:36:02;21.03;61.53
75471;HTU21D;64051;46.320;48.028;2023-07-30T00:38:28;21.02;61.54
75471;HTU21D;64051;46.320;48.028;2023-07-30T00:40:55;20.99;61.59
75471;HTU21D;64051;46.320;48.028;2023-07-30T00:43:21;20.95;61.63
75471;HTU21D;64051;46.320;48.028;2023-07-30T00:45:47;20.94;61.68
75471;HTU21D;64051;46.320;48.028;2023-07-30T00:48:14;20.93;61.72
75471;HTU21D;64051;46.320;48.028;2023-07-30T00:50:40;20.90;61.76
75471;HTU21D;64051;46.320;48.028;2023-07-30T00:53:06;20.89;61.79
75471;HTU21D;64051;46.320;48.028;2023-07-30T00:55:32;20.87;61.83
75471;HTU21D;64051;46.320;48.028;2023-07-30T00:57:58;20.87;61.86
75471;HTU21D;64051;46.320;48.028;2023-07-30T01:00:24;20.87;61.81
75471;HTU21D;64051;46.320;48.028;2023-07-30T01:02:52;20.84;61.77
75471;HTU21D;64051;46.320;48.028;2023-07-30T01:05:17;20.83;61.75
75471;HTU21D;64051;46.320;48.028;2023-07-30T01:07:44;20.81;61.80
75471;HTU21D;64051;46.320;48.028;2023-07-30T01:10:10;20.83;61.77
75471;HTU21D;64051;46.320;48.028;2023-07-30T01:12:36;20.81;61.69
75471;HTU21D;64051;46.320;48.028;2023-07-30T01:15:03;20.80;61.63
75471;HTU21D;64051;46.320;48.028;2023-07-30T01:17:29;20.78;61.59
75471;HTU21D;64051;46.320;48.028;2023-07-30T01:19:55;20.77;61.66
75471;HTU21D;64051;46.320;48.028;2023-07-30T01:22:21;20.76;61.67
75471;HTU21D;64051;46.320;48.028;2023-07-30T01:24:47;20.76;61.61
75471;HTU21D;64051;46.320;48.028;2023-07-30T01:27:24;20.74;61.64
75471;HTU21D;64051;46.320;48.028;2023-07-30T01:32:26;20.70;61.58
75471;HTU21D;64051;46.320;48.028;2023-07-30T01:34:52;20.70;61.70
75471;HTU21D;64051;46.320;48.028;2023-07-30T01:37:18;20.71;61.70
75471;HTU21D;64051;46.320;48.028;2023-07-30T01:39:45;20.70;61.60
75471;HTU21D;64051;46.320;48.028;2023-07-30T01:42:11;20.69;61.58
75471;HTU21D;64051;46.320;48.028;2023-07-30T01:44:37;20.66;61.57
75471;HTU21D;64051;46.320;48.028;2023-07-30T01:47:03;20.66;61.64
75471;HTU21D;64051;46.320;48.028;2023-07-30T01:49:28;20.66;61.66
75471;HTU21D;64051;46.320;48.028;2023-07-30T01:51:54;20.69;61.67
75471;HTU21D;64051;46.320;48.028;2023-07-30T01:54:20;20.68;61.59
75471;HTU21D;64051;46.320;48.028;2023-07-30T01:56:45;20.66;61.54
75471;HTU21D;64051;46.320;48.028;2023-07-30T01:59:11;20.65;61.58
75471;HTU21D;64051;46.320;48.028;2023-07-30T02:01:37;20.68;61.62
75471;HTU21D;64051;46.320;48.028;2023-07-30T02:04:03;20.69;61.63
75471;HTU21D;64051;46.320;48.028;2023-07-30T02:06:29;20.72;61.57
75471;HTU21D;64051;46.320;48.028;2023-07-30T02:08:55;20.73;61.47
75471;HTU21D;64051;46.320;48.028;2023-07-30T02:11:20;20.74;61.43
75471;HTU21D;64051;46.320;48.028;2023-07-30T02:13:46;20.75;61.35
75471;HTU21D;64051;46.320;48.028;2023-07-30T02:16:12;20.76;61.36
75471;HTU21D;64051;46.320;48.028;2023-07-30T02:18:38;20.78;61.31
75471;HTU21D;64051;46.320;48.028;2023-07-30T02:21:03;20.81;61.33
75471;HTU21D;64051;46.320;48.028;2023-07-30T02:23:29;20.89;61.30
75471;HTU21D;64051;46.320;48.028;2023-07-30T02:25:55;20.98;61.27
75471;HTU21D;64051;46.320;48.028;2023-07-30T02:28:21;21.08;61.15
75471;HTU21D;64051;46.320;48.028;2023-07-30T02:30:47;21.17;60.95
75471;HTU21D;64051;46.320;48.028;2023-07-30T02:33:12;21.25;60.75
75471;HTU21D;64051;46.320;48.028;2023-07-30T02:35:38;21.32;60.64
75471;HTU21D;64051;46.320;48.028;2023-07-30T02:38:04;21.38;60.57
75471;HTU21D;64051;46.320;48.028;2023-07-30T02:40:31;21.46;60.47
75471;HTU21D;64051;46.320;48.028;2023-07-30T02:42:57;21.52;60.38
75471;HTU21D;64051;46.320;48.028;2023-07-30T02:45:23;21.58;60.22
75471;HTU21D;64051;46.320;48.028;2023-07-30T02:47:48;21.67;60.13
75471;HTU21D;64051;46.320;48.028;2023-07-30T02:50:14;21.74;60.02
75471;HTU21D;64051;46.320;48.028;2023-07-30T02:52:40;21.78;59.90
75471;HTU21D;64051;46.320;48.028;2023-07-30T02:55:06;21.82;59.88
75471;HTU21D;64051;46.320;48.028;2023-07-30T02:57:32;21.88;60.22
75471;HTU21D;64051;46.320;48.028;2023-07-30T02:59:58;21.96;60.25
75471;HTU21D;64051;46.320;48.028;2023-07-30T03:02:24;22.04;60.18
75471;HTU21D;64051;46.320;48.028;2023-07-30T03:04:50;22.09;60.16
75471;HTU21D;64051;46.320;48.028;2023-07-30T03:07:16;22.18;60.08
75471;HTU21D;64051;46.320;48.028;2023-07-30T03:09:43;22.23;59.89
75471;HTU21D;64051;46.320;48.028;2023-07-30T03:12:09;22.27;59.58
75471;HTU21D;64051;46.320;48.028;2023-07-30T03:14:34;22.29;59.38
75471;HTU21D;64051;46.320;48.028;2023-07-30T03:17:00;22.32;59.19
75471;HTU21D;64051;46.320;48.028;2023-07-30T03:19:26;22.33;59.07
75471;HTU21D;64051;46.320;48.028;2023-07-30T03:21:55;22.34;59.00
75471;HTU21D;64051;46.320;48.028;2023-07-30T03:24:21;22.37;58.93
75471;HTU21D;64051;46.320;48.028;2023-07-30T03:26:47;22.39;58.84
75471;HTU21D;64051;46.320;48.028;2023-07-30T03:29:13;22.42;58.79
75471;HTU21D;64051;46.320;48.028;2023-07-30T03:31:39;22.46;58.72
75471;HTU21D;64051;46.320;48.028;2023-07-30T03:34:05;22.49;58.61
75471;HTU21D;64051;46.320;48.028;2023-07-30T03:36:31;22.51;58.51
75471;HTU21D;64051;46.320;48.028;2023-07-30T03:38:57;22.54;58.37
75471;HTU21D;64051;46.320;48.028;2023-07-30T03:41:23;22.57;58.29
75471;HTU21D;64051;46.320;48.028;2023-07-30T03:43:49;22.58;58.22
75471;HTU21D;64051;46.320;48.028;2023-07-30T03:46:14;22.62;58.16
75471;HTU21D;64051;46.320;48.028;2023-07-30T03:48:40;22.69;58.16
75471;HTU21D;64051;46.320;48.028;2023-07-30T03:51:07;22.76;58.12
75471;HTU21D;64051;46.320;48.028;2023-07-30T03:53:33;22.83;58.00
75471;HTU21D;64051;46.320;48.028;2023-07-30T03:55:59;22.87;57.89
75471;HTU21D;64051;46.320;48.028;2023-07-30T03:58:25;22.95;57.80
75471;HTU21D;64051;46.320;48.028;2023-07-30T04:00:51;23.00;57.74
75471;HTU21D;64051;46.320;48.028;2023-07-30T04:03:17;23.06;57.71
75471;HTU21D;64051;46.320;48.028;2023-07-30T04:05:43;23.10;57.63
75471;HTU21D;64051;46.320;48.028;2023-07-30T04:08:09;23.14;57.56
75471;HTU21D;64051;46.320;48.028;2023-07-30T04:10:35;23.20;57.52
75471;HTU21D;64051;46.320;48.028;2023-07-30T04:13:01;23.25;57.47
75471;HTU21D;64051;46.320;48.028;2023-07-30T04:15:27;23.30;57.39
75471;HTU21D;64051;46.320;48.028;2023-07-30T04:17:53;23.36;57.34
75471;HTU21D;64051;46.320;48.028;2023-07-30T04:20:19;23.44;57.29
75471;HTU21D;64051;46.320;48.028;2023-07-30T04:22:47;23.51;57.22
75471;HTU21D;64051;46.320;48.028;2023-07-30T04:25:15;23.59;57.15
75471;HTU21D;64051;46.320;48.028;2023-07-30T04:27:41;23.68;57.07
75471;HTU21D;64051;46.320;48.028;2023-07-30T04:30:07;23.76;57.02
75471;HTU21D;64051;46.320;48.028;2023-07-30T04:32:36;23.87;56.92
75471;HTU21D;64051;46.320;48.028;2023-07-30T04:35:02;23.95;56.77
75471;HTU21D;64051;46.320;48.028;2023-07-30T04:37:31;24.01;56.64
75471;HTU21D;64051;46.320;48.028;2023-07-30T04:39:57;24.09;56.57
75471;HTU21D;64051;46.320;48.028;2023-07-30T04:42:24;24.16;56.49
75471;HTU21D;64051;46.320;48.028;2023-07-30T04:44:50;24.23;56.33
75471;HTU21D;64051;46.320;48.028;2023-07-30T04:47:17;24.30;56.26
75471;HTU21D;64051;46.320;48.028;2023-07-30T04:49:43;24.38;56.22
75471;HTU21D;64051;46.320;48.028;2023-07-30T04:52:10;24.48;56.12
75471;HTU21D;64051;46.320;48.028;2023-07-30T04:54:35;24.58;56.06
75471;HTU21D;64051;46.320;48.028;2023-07-30T04:57:02;24.66;55.88
75471;HTU21D;64051;46.320;48.028;2023-07-30T04:59:31;24.73;55.65
75471;HTU21D;64051;46.320;48.028;2023-07-30T05:02:00;24.78;55.51
75471;HTU21D;64051;46.320;48.028;2023-07-30T05:04:25;24.85;55.42
75471;HTU21D;64051;46.320;48.028;2023-07-30T05:06:51;24.91;55.37
75471;HTU21D;64051;46.320;48.028;2023-07-30T05:09:17;24.99;55.29
75471;HTU21D;64051;46.320;48.028;2023-07-30T05:11:43;25.08;55.18
75471;HTU21D;64051;46.320;48.028;2023-07-30T05:14:09;25.15;54.91
75471;HTU21D;64051;46.320;48.028;2023-07-30T05:16:35;25.19;54.62
75471;HTU21D;64051;46.320;48.028;2023-07-30T05:19:02;25.24;54.46
75471;HTU21D;64051;46.320;48.028;2023-07-30T05:21:28;25.29;54.35
75471;HTU21D;64051;46.320;48.028;2023-07-30T05:23:53;25.34;54.21
75471;HTU21D;64051;46.320;48.028;2023-07-30T05:26:19;25.39;54.07
75471;HTU21D;64051;46.320;48.028;2023-07-30T05:28:45;25.47;53.82
75471;HTU21D;64051;46.320;48.028;2023-07-30T05:31:11;25.51;53.65
75471;HTU21D;64051;46.320;48.028;2023-07-30T05:33:37;25.61;53.55
75471;HTU21D;64051;46.320;48.028;2023-07-30T05:36:03;25.68;53.52
75471;HTU21D;64051;46.320;48.028;2023-07-30T05:38:29;25.77;53.36
75471;HTU21D;64051;46.320;48.028;2023-07-30T05:40:55;25.84;53.26
75471;HTU21D;64051;46.320;48.028;2023-07-30T05:43:20;25.93;53.12
75471;HTU21D;64051;46.320;48.028;2023-07-30T05:45:49;25.98;52.94
75471;HTU21D;64051;46.320;48.028;2023-07-30T05:48:15;26.05;52.72
75471;HTU21D;64051;46.320;48.028;2023-07-30T05:50:41;26.11;52.38
75471;HTU21D;64051;46.320;48.028;2023-07-30T05:53:10;26.16;52.13
75471;HTU21D;64051;46.320;48.028;2023-07-30T05:55:42;26.23;51.81
75471;HTU21D;64051;46.320;48.028;2023-07-30T05:58:13;26.28;51.69
75471;HTU21D;64051;46.320;48.028;2023-07-30T06:00:42;26.38;51.50
75471;HTU21D;64051;46.320;48.028;2023-07-30T06:03:08;26.48;51.45
75471;HTU21D;64051;46.320;48.028;2023-07-30T06:05:41;26.57;50.74
75471;HTU21D;64051;46.320;48.028;2023-07-30T06:08:08;26.65;50.72
75471;HTU21D;64051;46.320;48.028;2023-07-30T06:10:36;26.75;50.37
75471;HTU21D;64051;46.320;48.028;2023-07-30T06:13:09;26.81;50.18
75471;HTU21D;64051;46.320;48.028;2023-07-30T06:15:37;26.90;49.76
75471;HTU21D;64051;46.320;48.028;2023-07-30T06:18:04;26.96;49.59
75471;HTU21D;64051;46.320;48.028;2023-07-30T06:20:29;27.05;49.18
75471;HTU21D;64051;46.320;48.028;2023-07-30T06:22:55;27.13;48.91
75471;HTU21D;64051;46.320;48.028;2023-07-30T06:25:21;27.25;48.36
75471;HTU21D;64051;46.320;48.028;2023-07-30T06:27:47;27.31;48.04
75471;HTU21D;64051;46.320;48.028;2023-07-30T06:30:16;27.40;47.91
75471;HTU21D;64051;46.320;48.028;2023-07-30T06:32:42;27.50;47.45
75471;HTU21D;64051;46.320;48.028;2023-07-30T06:35:08;27.59;47.03
75471;HTU21D;64051;46.320;48.028;2023-07-30T06:37:34;27.70;46.79
75471;HTU21D;64051;46.320;48.028;2023-07-30T06:40:00;27.81;46.47
75471;HTU21D;64051;46.320;48.028;2023-07-30T06:42:26;27.88;45.95
75471;HTU21D;64051;46.320;48.028;2023-07-30T06:44:52;27.95;45.77
75471;HTU21D;64051;46.320;48.028;2023-07-30T06:47:21;28.04;45.36
75471;HTU21D;64051;46.320;48.028;2023-07-30T06:49:47;28.12;45.30
75471;HTU21D;64051;46.320;48.028;2023-07-30T06:52:12;28.25;45.25
75471;HTU21D;64051;46.320;48.028;2023-07-30T06:54:38;28.38;45.07
75471;HTU21D;64051;46.320;48.028;2023-07-30T06:57:04;28.54;44.80
75471;HTU21D;64051;46.320;48.028;2023-07-30T06:59:30;28.60;44.17
75471;HTU21D;64051;46.320;48.028;2023-07-30T07:01:56;28.69;44.16
75471;HTU21D;64051;46.320;48.028;2023-07-30T07:04:22;28.78;43.75
75471;HTU21D;64051;46.320;48.028;2023-07-30T07:07:01;28.87;43.29
75471;HTU21D;64051;46.320;48.028;2023-07-30T07:09:35;28.91;43.29
75471;HTU21D;64051;46.320;48.028;2023-07-30T07:12:04;28.98;43.03
75471;HTU21D;64051;46.320;48.028;2023-07-30T07:14:30;29.04;42.92
75471;HTU21D;64051;46.320;48.028;2023-07-30T07:16:58;29.12;42.61
75471;HTU21D;64051;46.320;48.028;2023-07-30T07:19:27;29.18;42.32
75471;HTU21D;64051;46.320;48.028;2023-07-30T07:21:55;29.26;42.21
75471;HTU21D;64051;46.320;48.028;2023-07-30T07:24:21;29.32;41.65
75471;HTU21D;64051;46.320;48.028;2023-07-30T07:26:50;29.37;41.19
75471;HTU21D;64051;46.320;48.028;2023-07-30T07:29:19;29.43;41.30
75471;HTU21D;64051;46.320;48.028;2023-07-30T07:31:45;29.49;41.10
75471;HTU21D;64051;46.320;48.028;2023-07-30T07:34:11;29.59;40.69
75471;HTU21D;64051;46.320;48.028;2023-07-30T07:36:37;29.61;40.28
75471;HTU21D;64051;46.320;48.028;2023-07-30T07:39:06;29.61;39.85
75471;HTU21D;64051;46.320;48.028;2023-07-30T07:41:40;29.58;39.63
75471;HTU21D;64051;46.320;48.028;2023-07-30T07:44:09;29.61;39.80
75471;HTU21D;64051;46.320;48.028;2023-07-30T07:46:35;29.71;39.66
75471;HTU21D;64051;46.320;48.028;2023-07-30T07:49:04;29.75;39.11
75471;HTU21D;64051;46.320;48.028;2023-07-30T07:51:33;29.78;39.10
75471;HTU21D;64051;46.320;48.028;2023-07-30T07:53:59;29.87;39.16
75471;HTU21D;64051;46.320;48.028;2023-07-30T07:56:29;29.92;38.90
75471;HTU21D;64051;46.320;48.028;2023-07-30T07:58:58;29.98;38.76
75471;HTU21D;64051;46.320;48.028;2023-07-30T08:01:30;30.02;38.17
75471;HTU21D;64051;46.320;48.028;2023-07-30T08:03:58;30.03;38.43
75471;HTU21D;64051;46.320;48.028;2023-07-30T08:06:24;30.12;38.31
75471;HTU21D;64051;46.320;48.028;2023-07-30T08:08:50;30.20;38.17
75471;HTU21D;64051;46.320;48.028;2023-07-30T08:11:16;30.28;37.97
75471;HTU21D;64051;46.320;48.028;2023-07-30T08:13:42;30.28;37.85
75471;HTU21D;64051;46.320;48.028;2023-07-30T08:16:08;30.27;37.72
75471;HTU21D;64051;46.320;48.028;2023-07-30T08:18:34;30.30;37.63
75471;HTU21D;64051;46.320;48.028;2023-07-30T08:21:00;30.30;37.07
75471;HTU21D;64051;46.320;48.028;2023-07-30T08:23:27;30.34;37.18
75471;HTU21D;64051;46.320;48.028;2023-07-30T08:25:52;30.36;37.18
75471;HTU21D;64051;46.320;48.028;2023-07-30T08:28:21;30.46;36.97
75471;HTU21D;64051;46.320;48.028;2023-07-30T08:30:47;30.54;36.99
75471;HTU21D;64051;46.320;48.028;2023-07-30T08:33:13;30.61;36.70
75471;HTU21D;64051;46.320;48.028;2023-07-30T08:35:39;30.62;36.67
75471;HTU21D;64051;46.320;48.028;2023-07-30T08:38:11;30.70;36.42
75471;HTU21D;64051;46.320;48.028;2023-07-30T08:40:40;30.80;36.50
75471;HTU21D;64051;46.320;48.028;2023-07-30T08:43:11;30.89;36.46
75471;HTU21D;64051;46.320;48.028;2023-07-30T08:45:37;30.92;36.06
75471;HTU21D;64051;46.320;48.028;2023-07-30T08:48:03;30.87;35.85
75471;HTU21D;64051;46.320;48.028;2023-07-30T08:50:32;30.89;35.85
75471;HTU21D;64051;46.320;48.028;2023-07-30T08:53:03;30.90;35.56
75471;HTU21D;64051;46.320;48.028;2023-07-30T08:55:29;30.91;35.39
75471;HTU21D;64051;46.320;48.028;2023-07-30T08:58:02;30.97;35.42
75471;HTU21D;64051;46.320;48.028;2023-07-30T09:00:37;31.12;35.59
75471;HTU21D;64051;46.320;48.028;2023-07-30T09:03:07;31.28;35.22
75471;HTU21D;64051;46.320;48.028;2023-07-30T09:05:38;31.36;34.97
75471;HTU21D;64051;46.320;48.028;2023-07-30T09:08:06;31.41;34.65
75471;HTU21D;64051;46.320;48.028;2023-07-30T09:10:36;31.42;34.33
75471;HTU21D;64051;46.320;48.028;2023-07-30T09:13:02;31.39;34.30
75471;HTU21D;64051;46.320;48.028;2023-07-30T09:15:32;31.39;33.73
75471;HTU21D;64051;46.320;48.028;2023-07-30T09:18:04;31.34;33.32
75471;HTU21D;64051;46.320;48.028;2023-07-30T09:20:40;31.34;31.53
75471;HTU21D;64051;46.320;48.028;2023-07-30T09:23:18;31.35;33.09
75471;HTU21D;64051;46.320;48.028;2023-07-30T09:25:47;31.43;32.92
75471;HTU21D;64051;46.320;48.028;2023-07-30T09:28:18;31.45;32.62
75471;HTU21D;64051;46.320;48.028;2023-07-30T09:30:49;31.52;33.09
75471;HTU21D;64051;46.320;48.028;2023-07-30T09:33:18;31.53;33.02
75471;HTU21D;64051;46.320;48.028;2023-07-30T09:35:45;31.55;32.89
75471;HTU21D;64051;46.320;48.028;2023-07-30T09:38:11;31.54;32.20
75471;HTU21D;64051;46.320;48.028;2023-07-30T09:40:37;31.50;32.20
75471;HTU21D;64051;46.320;48.028;2023-07-30T09:43:05;31.54;32.51
75471;HTU21D;64051;46.320;48.028;2023-07-30T09:45:45;31.63;32.12
75471;HTU21D;64051;46.320;48.028;2023-07-30T09:48:13;31.66;32.19
75471;HTU21D;64051;46.320;48.028;2023-07-30T09:50:41;31.75;32.04
75471;HTU21D;64051;46.320;48.028;2023-07-30T09:53:15;31.80;31.61
75471;HTU21D;64051;46.320;48.028;2023-07-30T09:55:44;31.80;31.62
75471;HTU21D;64051;46.320;48.028;2023-07-30T09:58:13;31.88;31.80
75471;HTU21D;64051;46.320;48.028;2023-07-30T10:00:39;31.99;31.57
75471;HTU21D;64051;46.320;48.028;2023-07-30T10:03:06;32.04;31.56
75471;HTU21D;64051;46.320;48.028;2023-07-30T10:05:37;32.14;31.60
75471;HTU21D;64051;46.320;48.028;2023-07-30T10:08:14;32.27;31.12
75471;HTU21D;64051;46.320;48.028;2023-07-30T10:10:42;32.33;31.35
75471;HTU21D;64051;46.320;48.028;2023-07-30T10:13:18;32.41;30.96
75471;HTU21D;64051;46.320;48.028;2023-07-30T10:15:48;32.43;31.05
75471;HTU21D;64051;46.320;48.028;2023-07-30T10:18:32;32.45;28.52
75471;HTU21D;64051;46.320;48.028;2023-07-30T10:20:59;32.35;30.49
75471;HTU21D;64051;46.320;48.028;2023-07-30T10:23:29;32.33;30.45
75471;HTU21D;64051;46.320;48.028;2023-07-30T10:25:57;32.33;29.65
75471;HTU21D;64051;46.320;48.028;2023-07-30T10:31:04;32.39;30.68
75471;HTU21D;64051;46.320;48.028;2023-07-30T10:33:49;32.47;30.11
75471;HTU21D;64051;46.320;48.028;2023-07-30T10:36:42;32.53;29.56
75471;HTU21D;64051;46.320;48.028;2023-07-30T10:39:18;32.56;30.25
75471;HTU21D;64051;46.320;48.028;2023-07-30T10:41:57;32.64;30.22
75471;HTU21D;64051;46.320;48.028;2023-07-30T10:44:25;32.72;30.25
75471;HTU21D;64051;46.320;48.028;2023-07-30T10:46:58;32.75;29.88
75471;HTU21D;64051;46.320;48.028;2023-07-30T10:49:24;32.70;27.92
75471;HTU21D;64051;46.320;48.028;2023-07-30T10:52:02;32.62;30.24
75471;HTU21D;64051;46.320;48.028;2023-07-30T10:54:40;32.64;29.35
75471;HTU21D;64051;46.320;48.028;2023-07-30T10:57:08;32.59;29.59
75471;HTU21D;64051;46.320;48.028;2023-07-30T10:59:41;32.58;29.71
75471;HTU21D;64051;46.320;48.028;2023-07-30T11:02:12;32.63;29.55
75471;HTU21D;64051;46.320;48.028;2023-07-30T11:04:40;32.64;29.71
75471;HTU21D;64051;46.320;48.028;2023-07-30T11:07:06;32.69;29.80
75471;HTU21D;64051;46.320;48.028;2023-07-30T11:09:44;32.72;29.55
75471;HTU21D;64051;46.320;48.028;2023-07-30T11:12:13;32.72;29.06
75471;HTU21D;64051;46.320;48.028;2023-07-30T11:14:40;32.71;29.30
75471;HTU21D;64051;46.320;48.028;2023-07-30T11:17:09;32.77;29.29
75471;HTU21D;64051;46.320;48.028;2023-07-30T11:19:34;32.84;29.18
75471;HTU21D;64051;46.320;48.028;2023-07-30T11:22:00;32.87;28.98
75471;HTU21D;64051;46.320;48.028;2023-07-30T11:24:36;32.91;28.72
75471;HTU21D;64051;46.320;48.028;2023-07-30T11:27:03;32.98;29.14
75471;HTU21D;64051;46.320;48.028;2023-07-30T11:29:32;33.02;28.96
75471;HTU21D;64051;46.320;48.028;2023-07-30T11:31:59;33.04;28.79
75471;HTU21D;64051;46.320;48.028;2023-07-30T11:34:31;33.05;28.49
75471;HTU21D;64051;46.320;48.028;2023-07-30T11:37:01;33.01;28.21
75471;HTU21D;64051;46.320;48.028;2023-07-30T11:39:27;32.96;28.19
75471;HTU21D;64051;46.320;48.028;2023-07-30T11:42:06;32.94;27.26
75471;HTU21D;64051;46.320;48.028;2023-07-30T11:44:35;32.94;27.90
75471;HTU21D;64051;46.320;48.028;2023-07-30T11:47:04;32.96;28.16
75471;HTU21D;64051;46.320;48.028;2023-07-30T11:49:36;32.97;28.16
75471;HTU21D;64051;46.320;48.028;2023-07-30T11:52:09;32.99;27.53
75471;HTU21D;64051;46.320;48.028;2023-07-30T11:54:44;32.98;28.07
75471;HTU21D;64051;46.320;48.028;2023-07-30T11:57:13;32.97;28.02
75471;HTU21D;64051;46.320;48.028;2023-07-30T11:59:39;32.93;28.04
75471;HTU21D;64051;46.320;48.028;2023-07-30T12:02:07;32.90;27.94
75471;HTU21D;64051;46.320;48.028;2023-07-30T12:04:47;32.91;27.62
75471;HTU21D;64051;46.320;48.028;2023-07-30T12:07:24;32.97;27.74
75471;HTU21D;64051;46.320;48.028;2023-07-30T12:09:51;32.97;28.09
75471;HTU21D;64051;46.320;48.028;2023-07-30T12:12:17;32.97;27.93
75471;HTU21D;64051;46.320;48.028;2023-07-30T12:14:45;32.94;27.74
75471;HTU21D;64051;46.320;48.028;2023-07-30T12:17:23;32.91;27.55
75471;HTU21D;64051;46.320;48.028;2023-07-30T12:19:52;32.88;27.73
75471;HTU21D;64051;46.320;48.028;2023-07-30T12:22:18;32.87;27.89
75471;HTU21D;64051;46.320;48.028;2023-07-30T12:24:44;32.88;27.81
75471;HTU21D;64051;46.320;48.028;2023-07-30T12:27:18;32.91;27.85
75471;HTU21D;64051;46.320;48.028;2023-07-30T12:29:50;32.94;27.80
75471;HTU21D;64051;46.320;48.028;2023-07-30T12:32:18;32.96;27.94
75471;HTU21D;64051;46.320;48.028;2023-07-30T12:34:47;32.99;27.93
75471;HTU21D;64051;46.320;48.028;2023-07-30T12:37:19;33.00;27.76
75471;HTU21D;64051;46.320;48.028;2023-07-30T12:39:51;32.98;27.74
75471;HTU21D;64051;46.320;48.028;2023-07-30T12:42:17;32.94;27.68
75471;HTU21D;64051;46.320;48.028;2023-07-30T12:44:43;32.87;27.48
75471;HTU21D;64051;46.320;48.028;2023-07-30T12:47:09;32.83;27.49
75471;HTU21D;64051;46.320;48.028;2023-07-30T12:49:35;32.79;27.53
75471;HTU21D;64051;46.320;48.028;2023-07-30T12:52:01;32.81;27.70
75471;HTU21D;64051;46.320;48.028;2023-07-30T12:54:33;32.82;27.59
75471;HTU21D;64051;46.320;48.028;2023-07-30T12:57:08;32.86;27.72
75471;HTU21D;64051;46.320;48.028;2023-07-30T12:59:34;32.94;27.85
75471;HTU21D;64051;46.320;48.028;2023-07-30T13:02:01;33.04;27.87
75471;HTU21D;64051;46.320;48.028;2023-07-30T13:04:30;33.12;27.74
75471;HTU21D;64051;46.320;48.028;2023-07-30T13:06:59;33.18;27.76
75471;HTU21D;64051;46.320;48.028;2023-07-30T13:09:31;33.25;27.74
75471;HTU21D;64051;46.320;48.028;2023-07-30T13:11:58;33.29;27.72
75471;HTU21D;64051;46.320;48.028;2023-07-30T13:14:33;33.30;27.57
75471;HTU21D;64051;46.320;48.028;2023-07-30T13:16:58;33.25;27.49
75471;HTU21D;64051;46.320;48.028;2023-07-30T13:19:24;33.21;27.59
75471;HTU21D;64051;46.320;48.028;2023-07-30T13:21:50;33.16;27.33
75471;HTU21D;64051;46.320;48.028;2023-07-30T13:24:19;33.05;27.33
75471;HTU21D;64051;46.320;48.028;2023-07-30T13:26:45;33.03;27.44
75471;HTU21D;64051;46.320;48.028;2023-07-30T13:29:20;33.01;27.37
75471;HTU21D;64051;46.320;48.028;2023-07-30T13:31:45;32.96;27.53
75471;HTU21D;64051;46.320;48.028;2023-07-30T13:34:11;32.90;27.39
75471;HTU21D;64051;46.320;48.028;2023-07-30T13:36:40;32.86;27.29
75471;HTU21D;64051;46.320;48.028;2023-07-30T13:39:30;32.83;26.97
75471;HTU21D;64051;46.320;48.028;2023-07-30T13:41:59;32.77;27.26
75471;HTU21D;64051;46.320;48.028;2023-07-30T13:44:25;32.68;27.40
75471;HTU21D;64051;46.320;48.028;2023-07-30T13:46:51;32.59;27.42
75471;HTU21D;64051;46.320;48.028;2023-07-30T13:49:17;32.43;27.40
75471;HTU21D;64051;46.320;48.028;2023-07-30T13:51:43;32.26;27.52
75471;HTU21D;64051;46.320;48.028;2023-07-30T13:54:11;32.14;27.70
75471;HTU21D;64051;46.320;48.028;2023-07-30T13:56:40;32.11;27.79
75471;HTU21D;64051;46.320;48.028;2023-07-30T13:59:12;32.12;28.00
75471;HTU21D;64051;46.320;48.028;2023-07-30T14:01:53;32.16;27.89
75471;HTU21D;64051;46.320;48.028;2023-07-30T14:04:19;32.23;28.07
75471;HTU21D;64051;46.320;48.028;2023-07-30T14:06:45;32.27;28.07
75471;HTU21D;64051;46.320;48.028;2023-07-30T14:09:14;32.26;28.03
75471;HTU21D;64051;46.320;48.028;2023-07-30T14:11:41;32.19;28.14
75471;HTU21D;64051;46.320;48.028;2023-07-30T14:14:13;32.11;28.26
75471;HTU21D;64051;46.320;48.028;2023-07-30T14:16:42;32.01;28.37
75471;HTU21D;64051;46.320;48.028;2023-07-30T14:19:10;31.93;28.45
75471;HTU21D;64051;46.320;48.028;2023-07-30T14:21:36;31.88;28.57
75471;HTU21D;64051;46.320;48.028;2023-07-30T14:24:05;31.89;28.60
75471;HTU21D;64051;46.320;48.028;2023-07-30T14:26:31;31.93;28.65
75471;HTU21D;64051;46.320;48.028;2023-07-30T14:28:56;31.96;28.67
75471;HTU21D;64051;46.320;48.028;2023-07-30T14:31:22;31.98;28.51
75471;HTU21D;64051;46.320;48.028;2023-07-30T14:33:51;31.95;28.42
75471;HTU21D;64051;46.320;48.028;2023-07-30T14:36:20;31.85;28.29
75471;HTU21D;64051;46.320;48.028;2023-07-30T14:38:46;31.71;28.52
75471;HTU21D;64051;46.320;48.028;2023-07-30T14:41:14;31.57;28.40
75471;HTU21D;64051;46.320;48.028;2023-07-30T14:43:41;31.50;28.62
75471;HTU21D;64051;46.320;48.028;2023-07-30T14:46:07;31.49;28.61
75471;HTU21D;64051;46.320;48.028;2023-07-30T14:48:42;31.51;28.55
75471;HTU21D;64051;46.320;48.028;2023-07-30T14:51:18;31.49;28.60
75471;HTU21D;64051;46.320;48.028;2023-07-30T14:53:44;31.46;28.61
75471;HTU21D;64051;46.320;48.028;2023-07-30T14:56:28;31.40;28.65
75471;HTU21D;64051;46.320;48.028;2023-07-30T14:58:54;31.28;28.79
75471;HTU21D;64051;46.320;48.028;2023-07-30T15:01:22;31.20;28.85
75471;HTU21D;64051;46.320;48.028;2023-07-30T15:03:51;31.16;29.01
75471;HTU21D;64051;46.320;48.028;2023-07-30T15:06:17;31.14;29.05
75471;HTU21D;64051;46.320;48.028;2023-07-30T15:08:44;31.13;28.97
75471;HTU21D;64051;46.320;48.028;2023-07-30T15:11:10;31.13;28.90
75471;HTU21D;64051;46.320;48.028;2023-07-30T15:13:42;31.13;28.83